CheckWX is a tool to help pilots better visualize weather data.  It is not intended as a substitute for an official pre-flight weather briefing.

07:17:53 UTC

KDAL TAF
Dallas Love Field Airport
Dallas, Texas, USA
KDAL 160706Z 1607/1706 17017KT P6SM SCT060 BKN100 FM160800 17017KT P6SM VCTS BKN060CB TEMPO 1608/1611 33025G35KT 5SM -TSRA FM161500 18017KT P6SM SCT035 BKN250 FM170200 17014KT P6SM VCTS BKN050CB FM170500 17014KT P6SM OVC250

Jun-16@
07:00 UTC

Jun-16 @ 07:00 UTC

Jun-16@
08:00 UTC

Jun-16 @ 08:00 UTC

KDAL 160706Z 1607/1706 17017KT P6SM SCT060 BKN100
Wind
  • 170° at 17 KTS
Cloud Levels
  • Scattered at 6,000' AGL
  • Broken at 10,000' AGL

Jun-16@
08:00 UTC

Jun-16 @ 08:00 UTC

Jun-16@
11:00 UTC

Jun-16 @ 11:00 UTC

TEMPO 1608/1611 33025G35KT 5SM -TSRA

Temporary

Temporary Changes expected for less than half the time period

Wind
  • 330° at 25 KTS
  • {Gusting to 35 KTS
Conditions
Light Thunderstorm, Light Rain

Jun-16@
08:00 UTC

Jun-16 @ 08:00 UTC

Jun-16@
15:00 UTC

Jun-16 @ 15:00 UTC

FM160800 17017KT P6SM VCTS BKN060CB

From

From Standard forecast or significant change

Wind
  • 170° at 17 KTS
Conditions
Area Thunderstorm
Cloud Levels
  • Broken at 6,000' AGL

Jun-16@
15:00 UTC

Jun-16 @ 15:00 UTC

Jun-17@
02:00 UTC

Jun-17 @ 02:00 UTC

FM161500 18017KT P6SM SCT035 BKN250

From

From Standard forecast or significant change

Wind
  • 180° at 17 KTS
Cloud Levels
  • Scattered at 3,500' AGL
  • Broken at 25,000' AGL

Jun-17@
02:00 UTC

Jun-17 @ 02:00 UTC

Jun-17@
05:00 UTC

Jun-17 @ 05:00 UTC

FM170200 17014KT P6SM VCTS BKN050CB

From

From Standard forecast or significant change

Wind
  • 170° at 14 KTS
Conditions
Area Thunderstorm
Cloud Levels
  • Broken at 5,000' AGL

Jun-17@
05:00 UTC

Jun-17 @ 05:00 UTC

Jun-17@
06:00 UTC

Jun-17 @ 06:00 UTC

FM170500 17014KT P6SM OVC250

From

From Standard forecast or significant change

Wind
  • 170° at 14 KTS
Cloud Levels
  • Overcast at 25,000' AGL